Meteorología y climatología de Navarra
Datos de la estación - Meteo Navarra

Estación de Aralar GN

Altitud 1344 m.


Datos desde el 14/08/2019 hasta el 15/08/2019 en horario solar
Los datos son PROVISIONALES

Anterior Página 1 de 1 Siguiente Descargar: Formato para Excel 2000 o superior   Formato csv   Formato para OpenOffice Calc
Fecha Temperatura Humedad relativa Radiación global Insolación Precipitación Vel. viento 10 m Vel. viento 10 m Dir. viento 10 m
ºC % W/m² s l/m² m/s km/h º
14/08/2019 0:00 11.9 26 0.0 0 0.0 - - - - - -
14/08/2019 0:10 12.0 25 0.0 0 0.0 - - - - - -
14/08/2019 0:20 12.1 28 0.0 0 0.0 - - - - - -
14/08/2019 0:30 12.1 30 0.0 0 0.0 - - - - - -
14/08/2019 0:40 12.0 29 0.0 0 0.0 - - - - - -
14/08/2019 0:50 12.1 27 0.0 0 0.0 - - - - - -
14/08/2019 1:00 12.0 28 0.0 0 0.0 - - - - - -
14/08/2019 1:10 12.1 32 0.0 0 0.0 - - - - - -
14/08/2019 1:20 12.4 36 0.0 0 0.0 - - - - - -
14/08/2019 1:30 12.6 39 0.0 0 0.0 - - - - - -
14/08/2019 1:40 12.7 39 0.0 0 0.0 - - - - - -
14/08/2019 1:50 13.2 40 0.0 0 0.0 - - - - - -
14/08/2019 2:00 13.8 40 0.0 0 0.0 - - - - - -
14/08/2019 2:10 14.1 37 0.0 0 0.0 - - - - - -
14/08/2019 2:20 14.3 36 0.0 0 0.0 - - - - - -
14/08/2019 2:30 14.2 37 0.0 0 0.0 - - - - - -
14/08/2019 2:40 14.2 37 0.0 0 0.0 - - - - - -
14/08/2019 2:50 13.9 38 0.0 0 0.0 - - - - - -
14/08/2019 3:00 14.0 37 0.0 0 0.0 - - - - - -
14/08/2019 3:10 14.3 37 0.0 0 0.0 - - - - - -
14/08/2019 3:20 14.2 37 0.0 0 0.0 - - - - - -
14/08/2019 3:30 14.2 36 0.0 0 0.0 - - - - - -
14/08/2019 3:40 14.3 38 0.0 0 0.0 - - - - - -
14/08/2019 3:50 14.3 37 0.0 0 0.0 - - - - - -
14/08/2019 4:00 14.1 38 0.0 0 0.0 - - - - - -
14/08/2019 4:10 14.1 38 0.0 0 0.0 - - - - - -
14/08/2019 4:20 13.8 40 0.0 0 0.0 - - - - - -
14/08/2019 4:30 13.7 36 0.0 0 0.0 - - - - - -
14/08/2019 4:40 13.7 33 0.0 0 0.0 - - - - - -
14/08/2019 4:50 13.3 37 0.0 0 0.0 - - - - - -
14/08/2019 5:00 13.3 33 0.0 0 0.0 - - - - - -
14/08/2019 5:10 13.5 29 0.0 0 0.0 - - - - - -
14/08/2019 5:20 14.1 25 0.0 0 0.0 - - - - - -
14/08/2019 5:30 14.0 37 5.3 0 0.0 - - - - - -
14/08/2019 5:40 14.0 41 27.3 148 0.0 - - - - - -
14/08/2019 5:50 14.0 44 27.4 146 0.0 - - - - - -
14/08/2019 6:00 14.1 37 40.2 0 0.0 - - - - - -
14/08/2019 6:10 14.1 40 38.2 14 0.0 - - - - - -
14/08/2019 6:20 14.1 39 129.6 538 0.0 - - - - - -
14/08/2019 6:30 14.1 41 165.1 600 0.0 - - - - - -
14/08/2019 6:40 14.0 40 195.4 600 0.0 - - - - - -
14/08/2019 6:50 14.0 40 225.4 600 0.0 - - - - - -
14/08/2019 7:00 14.0 41 258.2 600 0.0 - - - - - -
14/08/2019 7:10 14.0 44 290.0 600 0.0 - - - - - -
14/08/2019 7:20 14.1 44 322.3 600 0.0 - - - - - -
14/08/2019 7:30 14.0 46 355.6 600 0.0 - - - - - -
14/08/2019 7:40 14.1 47 386.9 600 0.0 - - - - - -
14/08/2019 7:50 14.3 45 398.6 582 0.0 - - - - - -
14/08/2019 8:00 14.5 46 450.3 600 0.0 - - - - - -
14/08/2019 8:10 14.6 45 484.4 600 0.0 - - - - - -
14/08/2019 8:20 14.8 48 520.0 600 0.0 - - - - - -
14/08/2019 8:30 15.0 51 552.6 600 0.0 3.2 11.5 299
14/08/2019 8:40 15.2 53 584.1 0 0.0 0.0 0.0 0
14/08/2019 8:50 15.3 56 615.7 0 0.0 0.9 3.2 99
14/08/2019 9:00 15.5 58 647.2 362 0.0 2.8 10.1 302
14/08/2019 9:10 15.7 59 671.3 600 0.0 2.7 9.7 301
14/08/2019 9:20 15.8 59 710.9 600 0.0 2.5 9.1 297
14/08/2019 9:30 16.1 59 735.8 600 0.0 2.1 7.4 291
14/08/2019 9:40 16.4 57 757.1 600 0.0 2.0 7.3 292
14/08/2019 9:50 16.3 57 780.9 600 0.0 1.6 5.8 282
14/08/2019 10:00 16.6 55 785.3 600 0.0 1.7 5.9 278
14/08/2019 10:10 16.9 53 803.0 600 0.0 1.5 5.5 265
14/08/2019 10:20 17.3 52 821.0 600 0.0 2.1 7.4 257
14/08/2019 10:30 17.5 52 840.0 600 0.0 1.7 6.0 252
14/08/2019 10:40 18.0 53 854.0 600 0.0 1.2 4.2 255
14/08/2019 10:50 17.7 53 867.0 600 0.0 1.6 5.8 243
14/08/2019 11:00 17.4 54 881.0 600 0.0 1.9 6.9 243
14/08/2019 11:10 17.6 55 895.0 600 0.0 1.2 4.3 277
14/08/2019 11:20 17.2 54 909.0 600 0.0 2.1 7.7 309
14/08/2019 11:30 17.7 52 929.0 600 0.0 2.5 8.9 316
14/08/2019 11:40 17.8 54 919.0 600 0.0 2.2 8.0 321
14/08/2019 11:50 17.8 50 918.0 600 0.0 2.3 8.1 305
14/08/2019 12:00 17.7 50 920.0 600 0.0 2.4 8.7 304
14/08/2019 12:10 18.0 51 919.0 600 0.0 2.4 8.5 314
14/08/2019 12:20 17.9 48 921.0 600 0.0 3.0 10.9 301
14/08/2019 12:30 17.3 49 914.0 600 0.0 3.6 12.9 305
14/08/2019 12:40 17.2 50 919.0 600 0.0 4.0 14.4 313
14/08/2019 12:50 17.5 50 916.0 600 0.0 3.5 12.6 308
14/08/2019 13:00 17.4 53 902.0 600 0.0 3.9 14.0 320
14/08/2019 13:10 18.0 53 903.0 600 0.0 4.1 14.7 320
14/08/2019 13:20 18.1 55 890.0 600 0.0 3.1 11.1 330
14/08/2019 13:30 18.2 59 877.0 600 0.0 3.1 11.2 337
14/08/2019 13:40 18.1 60 863.0 600 0.0 2.8 9.9 335
14/08/2019 13:50 18.2 60 848.0 600 0.0 3.0 10.7 329
14/08/2019 14:00 18.5 59 831.0 600 0.0 3.2 11.5 335
14/08/2019 14:10 18.3 60 816.0 600 0.0 3.8 13.7 335
14/08/2019 14:20 17.8 63 798.9 600 0.0 4.1 14.9 332
14/08/2019 14:30 17.6 63 779.4 600 0.0 5.2 18.7 335
14/08/2019 14:40 17.4 65 771.1 600 0.0 5.0 18.1 333
14/08/2019 14:50 17.0 67 758.3 600 0.0 6.0 21.6 340
14/08/2019 15:00 17.2 67 735.2 600 0.0 6.4 23.1 343
14/08/2019 15:10 16.9 67 709.8 600 0.0 6.3 22.7 337
14/08/2019 15:20 16.8 68 690.4 600 0.0 5.0 18.0 334
14/08/2019 15:30 16.7 67 659.4 600 0.0 5.0 17.9 334
14/08/2019 15:40 16.6 67 630.5 600 0.0 5.0 17.8 333
14/08/2019 15:50 16.4 68 600.9 600 0.0 4.3 15.3 331
14/08/2019 16:00 16.1 68 571.5 600 0.0 5.0 17.9 335
14/08/2019 16:10 15.9 70 540.1 600 0.0 4.5 16.3 330
14/08/2019 16:20 15.6 71 515.7 600 0.0 4.7 16.8 327
14/08/2019 16:30 15.5 72 468.4 600 0.0 4.3 15.6 327
14/08/2019 16:40 15.6 72 376.8 520 0.0 4.5 16.2 334
14/08/2019 16:50 15.0 75 338.6 468 0.0 5.2 18.7 335
14/08/2019 17:00 15.2 74 370.6 600 0.0 6.1 22.1 332
14/08/2019 17:10 15.3 74 385.9 600 0.0 5.9 21.4 329
14/08/2019 17:20 14.9 75 314.3 600 0.0 5.6 20.0 329
14/08/2019 17:30 14.8 77 282.4 600 0.0 6.3 22.7 326
14/08/2019 17:40 14.7 78 247.1 600 0.0 5.9 21.1 328
14/08/2019 17:50 14.5 79 210.4 600 0.0 5.4 19.6 325
14/08/2019 18:00 14.4 81 180.8 600 0.0 5.7 20.7 323
14/08/2019 18:10 14.2 85 146.7 600 0.0 6.0 21.7 324
14/08/2019 18:20 14.2 85 89.0 364 0.0 5.3 18.9 327
14/08/2019 18:30 14.0 85 34.6 0 0.0 4.6 16.5 322
14/08/2019 18:40 13.8 85 47.9 246 0.0 3.6 12.8 326
14/08/2019 18:50 13.3 86 36.5 246 0.0 3.3 11.8 321
14/08/2019 19:00 13.0 88 19.1 142 0.0 4.1 14.9 325
14/08/2019 19:10 12.8 91 0.0 0 0.0 4.8 17.2 326
14/08/2019 19:20 12.8 96 0.0 0 0.0 5.4 19.4 324
14/08/2019 19:30 12.7 100 0.0 0 0.0 5.6 20.3 327
14/08/2019 19:40 12.9 100 0.0 0 0.0 4.3 15.4 323
14/08/2019 19:50 12.9 100 0.0 0 0.0 4.5 16.3 325
14/08/2019 20:00 13.0 100 0.0 0 0.0 5.0 17.9 324
14/08/2019 20:10 13.1 100 0.0 0 0.0 5.1 18.4 324
14/08/2019 20:20 13.1 100 0.0 0 0.0 5.1 18.4 322
14/08/2019 20:30 13.2 100 0.0 0 0.0 5.9 21.3 313
14/08/2019 20:40 13.4 100 0.0 0 0.0 5.9 21.1 311
14/08/2019 20:50 13.4 100 0.0 0 0.0 6.3 22.5 316
14/08/2019 21:00 13.2 100 0.0 0 0.0 5.3 19.0 315
14/08/2019 21:10 13.3 100 0.0 0 0.0 5.8 20.7 307
14/08/2019 21:20 13.4 100 0.0 0 0.0 6.1 22.1 308
14/08/2019 21:30 13.5 100 0.0 0 0.0 6.0 21.5 311
14/08/2019 21:40 13.6 100 0.0 0 0.0 5.7 20.6 310
14/08/2019 21:50 13.7 100 0.0 0 0.0 5.9 21.1 307
14/08/2019 22:00 13.6 100 0.0 0 0.0 7.1 25.6 312
14/08/2019 22:10 13.6 100 0.0 0 0.0 6.7 24.2 316
14/08/2019 22:20 13.6 100 0.0 0 0.0 5.4 19.3 320
14/08/2019 22:30 13.5 100 0.0 0 0.0 5.9 21.1 315
14/08/2019 22:40 13.4 100 0.0 0 0.0 6.2 22.2 314
14/08/2019 22:50 13.2 100 0.0 0 0.0 5.8 21.0 318
14/08/2019 23:00 13.3 100 0.0 0 0.0 6.3 22.8 319
14/08/2019 23:10 13.3 100 0.0 0 0.0 5.7 20.6 324
14/08/2019 23:20 13.4 100 0.0 0 0.0 5.6 20.2 323
14/08/2019 23:30 13.4 100 0.0 0 0.0 6.0 21.7 322
14/08/2019 23:40 13.3 100 0.0 0 0.0 6.4 23.0 321
14/08/2019 23:50 13.5 100 0.0 0 0.0 5.7 20.6 323
Anterior Página 1 de 1 Siguiente
Los datos de precipitación registrados en estaciones que están en cumbres son inferiores a lo real, como consecuencia del efecto del viento y de la nieve.


NOTA: Tipo de datos según el color:
   - Valores diarios o 10 minutos correctos
   - Valores diarios calculados a partir de un número de datos 10 minutos menor que 144 y mayor que 120, o de un número de datos semihorarios menor que 48 y mayor que 40 (caso de las estaciones de Riegos de Navarra y del MARM)
   - Valores diez minutos estimados


Contacto        Enlaces        Aviso legal